Time;durP1;ratioP1;P1;durP2;ratioP2;P2;SDS_P1;SDS_P2;PMS_P1;PMS_P2;Temp;Humidity;BMP_temperature;BMP_pressure;BME280_temperature;BME280_humidity;BME280_pressure;Samples;Min_cycle;Max_cycle;Signal;HPM_P1;HPM_P2
2021/06/13 00:01:45;;;;;;;14.37;8.00;;;19.10;75.10;;;;;;5074544;28;20218;-76
2021/06/13 00:04:11;;;;;;;14.10;8.27;;;19.00;75.40;;;;;;5073492;28;20693;-75
2021/06/13 00:06:37;;;;;;;12.90;8.10;;;19.00;75.80;;;;;;5073398;28;20429;-74
2021/06/13 00:09:04;;;;;;;13.23;7.77;;;19.00;75.70;;;;;;5074821;28;20264;-74
2021/06/13 00:11:30;;;;;;;16.50;8.43;;;18.90;76.10;;;;;;5074399;28;20168;-75
2021/06/13 00:13:56;;;;;;;15.77;8.60;;;18.90;75.80;;;;;;5074411;28;20437;-74
2021/06/13 00:16:22;;;;;;;14.63;8.27;;;18.90;75.70;;;;;;5074424;28;20424;-75
2021/06/13 00:18:48;;;;;;;14.10;8.40;;;18.80;76.20;;;;;;5073246;28;20930;-75
2021/06/13 00:21:14;;;;;;;13.97;7.90;;;18.90;75.90;;;;;;5074222;28;20180;-75
2021/06/13 00:23:41;;;;;;;13.63;7.60;;;18.90;75.50;;;;;;5073189;28;20208;-75
2021/06/13 00:26:08;;;;;;;11.13;7.43;;;18.90;75.70;;;;;;5072911;28;20420;-75
2021/06/13 00:28:34;;;;;;;13.77;7.40;;;19.00;75.70;;;;;;5074329;28;20780;-75
2021/06/13 00:31:00;;;;;;;15.87;8.00;;;19.00;75.40;;;;;;5074419;28;20553;-75
2021/06/13 00:33:26;;;;;;;16.63;7.87;;;19.10;75.10;;;;;;5072511;28;20890;-74
2021/06/13 00:35:52;;;;;;;13.63;7.60;;;19.20;74.50;;;;;;5072729;28;20895;-75
2021/06/13 00:38:18;;;;;;;11.77;7.50;;;19.10;74.30;;;;;;5074039;28;20420;-74
2021/06/13 00:40:43;;;;;;;11.07;7.57;;;19.10;74.60;;;;;;5073495;28;20218;-75
2021/06/13 00:43:09;;;;;;;12.73;7.77;;;19.10;73.90;;;;;;5073915;28;20177;-75
2021/06/13 00:45:35;;;;;;;13.93;8.03;;;18.90;73.90;;;;;;5073987;28;20240;-74
2021/06/13 00:48:01;;;;;;;14.67;7.70;;;19.00;74.60;;;;;;5073662;28;20173;-75
2021/06/13 00:50:29;;;;;;;11.97;7.40;;;19.00;74.60;;;;;;5073879;28;20182;-74
2021/06/13 00:52:59;;;;;;;12.50;8.27;;;19.10;74.50;;;;;;5073434;28;20659;-75
2021/06/13 00:55:27;;;;;;;12.30;7.67;;;19.10;74.00;;;;;;5073912;28;20453;-74
2021/06/13 00:57:53;;;;;;;11.60;7.30;;;19.00;74.60;;;;;;5074202;28;20421;-74
2021/06/13 01:00:20;;;;;;;15.13;8.00;;;18.90;75.20;;;;;;5075613;28;20488;-74
2021/06/13 01:02:46;;;;;;;12.10;7.87;;;19.00;75.10;;;;;;5079407;28;20408;-75
2021/06/13 01:05:12;;;;;;;11.83;7.47;;;18.90;75.50;;;;;;5080607;28;20438;-75
2021/06/13 01:07:58;;;;;;;18.43;8.63;;;18.90;75.50;;;;;;5079326;28;20918;-75
2021/06/13 01:10:37;;;;;;;15.70;8.10;;;18.90;74.90;;;;;;5076128;28;20411;-75
2021/06/13 01:13:17;;;;;;;12.20;7.67;;;18.90;75.20;;;;;;5083053;28;20457;-75
2021/06/13 01:15:50;;;;;;;12.60;7.07;;;19.00;75.20;;;;;;5082317;28;20486;-75
2021/06/13 01:18:48;;;;;;;14.97;7.20;;;19.00;75.10;;;;;;5076168;28;20434;-77
2021/06/13 01:21:22;;;;;;;13.10;7.90;;;19.00;74.60;;;;;;5073405;28;20415;-76
2021/06/13 01:24:13;;;;;;;16.50;8.67;;;19.00;74.60;;;;;;5073183;28;20439;-75
2021/06/13 01:27:02;;;;;;;17.73;8.47;;;18.70;75.70;;;;;;5072712;28;20788;-75
2021/06/13 01:29:55;;;;;;;10.83;7.27;;;18.40;76.70;;;;;;5067536;28;20416;-75
2021/06/13 01:32:24;;;;;;;15.10;8.27;;;18.40;76.70;;;;;;5070383;28;20503;-74
2021/06/13 01:35:09;;;;;;;10.50;6.50;;;18.40;75.90;;;;;;5072274;28;20501;-75
2021/06/13 01:37:38;;;;;;;12.80;7.50;;;18.40;76.40;;;;;;5070049;28;20419;-74
2021/06/13 01:40:11;;;;;;;13.37;7.70;;;18.40;75.80;;;;;;5080547;28;20411;-76
2021/06/13 01:42:41;;;;;;;12.60;7.83;;;18.50;75.40;;;;;;5073614;28;20386;-76
2021/06/13 01:45:13;;;;;;;10.73;7.80;;;18.40;75.80;;;;;;5072781;28;20519;-76
2021/06/13 01:47:40;;;;;;;12.83;7.43;;;18.40;76.10;;;;;;5072231;28;20447;-75
2021/06/13 01:50:08;;;;;;;14.47;7.93;;;18.30;76.40;;;;;;5072184;28;20924;-75
2021/06/13 01:52:38;;;;;;;14.00;7.57;;;18.30;76.50;;;;;;5071839;28;20418;-75
2021/06/13 01:55:05;;;;;;;12.20;7.20;;;18.30;76.80;;;;;;5070766;28;20492;-75
2021/06/13 01:57:32;;;;;;;14.43;8.30;;;18.30;76.80;;;;;;5082077;28;20411;-76
2021/06/13 01:59:59;;;;;;;14.80;7.30;;;18.30;77.00;;;;;;5091161;28;20488;-74
2021/06/13 02:02:27;;;;;;;13.10;7.87;;;18.30;76.80;;;;;;5081648;28;20427;-75
2021/06/13 02:04:53;;;;;;;13.70;7.30;;;18.40;76.70;;;;;;5072160;28;20439;-75
2021/06/13 02:07:20;;;;;;;17.77;8.57;;;18.30;77.10;;;;;;5072041;28;20422;-74
2021/06/13 02:09:47;;;;;;;14.93;8.53;;;18.20;77.70;;;;;;5071464;28;20863;-76
2021/06/13 02:12:14;;;;;;;14.60;7.33;;;18.20;78.00;;;;;;5069935;28;20426;-76
2021/06/13 02:14:43;;;;;;;14.77;8.50;;;18.20;78.00;;;;;;5071463;28;20472;-77
2021/06/13 02:17:10;;;;;;;12.37;6.90;;;18.20;77.70;;;;;;5072010;28;20423;-75
2021/06/13 02:19:38;;;;;;;14.80;7.60;;;18.20;77.70;;;;;;5071789;28;20505;-75
2021/06/13 02:22:06;;;;;;;13.17;8.23;;;18.20;77.70;;;;;;5070098;28;20787;-75
2021/06/13 02:24:35;;;;;;;14.67;8.20;;;18.20;77.30;;;;;;5068412;28;20777;-74
2021/06/13 02:27:04;;;;;;;11.43;7.50;;;18.20;77.40;;;;;;5071906;28;20423;-76
2021/06/13 02:29:30;;;;;;;12.23;7.40;;;18.10;77.10;;;;;;5070934;28;20435;-76
2021/06/13 02:31:57;;;;;;;13.10;7.57;;;18.00;77.40;;;;;;5076379;28;20493;-75
2021/06/13 02:34:30;;;;;;;13.80;7.57;;;18.10;77.30;;;;;;5094080;28;20485;-73
2021/06/13 02:36:59;;;;;;;13.30;7.40;;;18.10;77.00;;;;;;5095099;28;20426;-75
2021/06/13 02:39:25;;;;;;;12.43;7.50;;;18.20;77.00;;;;;;5093904;28;20422;-75
2021/06/13 02:41:51;;;;;;;14.27;7.90;;;18.30;75.80;;;;;;5086534;28;20480;-75
2021/06/13 02:44:18;;;;;;;14.40;7.67;;;18.30;75.70;;;;;;5079409;28;20438;-76
2021/06/13 02:46:45;;;;;;;17.53;9.13;;;18.30;75.40;;;;;;5077454;28;20429;-75
2021/06/13 02:49:11;;;;;;;14.20;7.93;;;18.30;75.20;;;;;;5078750;28;20578;-76
2021/06/13 02:52:02;;;;;;;10.30;7.03;;;18.20;75.10;;;;;;5077625;28;21003;-75
2021/06/13 02:54:31;;;;;;;13.33;6.97;;;18.20;75.10;;;;;;5075801;28;20519;-76
2021/06/13 02:57:03;;;;;;;12.97;6.67;;;18.30;74.00;;;;;;5071367;28;20411;-75
2021/06/13 02:59:53;;;;;;;11.30;7.23;;;18.30;73.70;;;;;;5073911;28;20507;-74
2021/06/13 03:02:28;;;;;;;16.03;7.60;;;18.10;73.70;;;;;;5069222;28;20425;-75
2021/06/13 03:04:57;;;;;;;14.43;7.10;;;18.00;73.70;;;;;;5077114;28;20464;-75
2021/06/13 03:07:24;;;;;;;13.43;5.93;;;18.00;73.90;;;;;;5075090;28;20514;-75
2021/06/13 03:09:51;;;;;;;12.57;6.83;;;18.00;74.80;;;;;;5075902;28;20455;-75
2021/06/13 03:12:19;;;;;;;14.40;7.07;;;18.00;74.50;;;;;;5075313;28;20549;-75
2021/06/13 03:14:47;;;;;;;15.53;7.70;;;18.00;75.10;;;;;;5075102;28;20522;-74
2021/06/13 03:17:14;;;;;;;14.10;7.70;;;18.00;74.90;;;;;;5074843;28;20418;-76
2021/06/13 03:19:43;;;;;;;12.20;7.63;;;18.00;75.80;;;;;;5073099;28;20429;-75
2021/06/13 03:22:09;;;;;;;10.47;7.43;;;18.00;75.80;;;;;;5073973;28;20450;-76
2021/06/13 03:24:38;;;;;;;14.70;8.20;;;17.90;76.10;;;;;;5074753;28;20454;-75
2021/06/13 03:27:06;;;;;;;10.97;7.97;;;17.90;76.40;;;;;;5071962;28;21221;-75
2021/06/13 03:29:35;;;;;;;11.43;6.90;;;17.80;76.70;;;;;;5071367;28;20438;-75
2021/06/13 03:32:02;;;;;;;10.70;6.70;;;17.90;76.50;;;;;;5072268;28;20928;-75
2021/06/13 03:34:28;;;;;;;10.60;6.73;;;17.90;75.50;;;;;;5075457;28;20505;-76
2021/06/13 03:36:55;;;;;;;14.63;7.20;;;17.80;75.90;;;;;;5075470;28;20416;-75
2021/06/13 03:39:22;;;;;;;11.97;6.77;;;17.70;76.40;;;;;;5075834;28;20171;-75
2021/06/13 03:41:49;;;;;;;16.33;7.40;;;17.70;76.20;;;;;;5075243;28;20495;-75
2021/06/13 03:44:15;;;;;;;12.33;6.37;;;17.80;75.80;;;;;;5071762;28;20810;-75
2021/06/13 03:46:41;;;;;;;12.43;7.17;;;17.70;75.50;;;;;;5075128;28;20433;-75
2021/06/13 03:49:10;;;;;;;17.17;7.50;;;17.80;75.20;;;;;;5075430;28;20445;-76
2021/06/13 03:51:36;;;;;;;8.20;5.80;;;17.80;74.80;;;;;;5074764;28;20467;-75
2021/06/13 03:54:02;;;;;;;14.90;6.60;;;17.80;74.80;;;;;;5075051;28;20532;-76
2021/06/13 03:56:31;;;;;;;12.83;6.67;;;17.70;74.50;;;;;;5075077;28;20493;-75
2021/06/13 03:58:58;;;;;;;12.10;6.07;;;17.70;74.60;;;;;;5075245;28;20181;-75
2021/06/13 04:01:24;;;;;;;10.70;6.10;;;17.70;74.90;;;;;;5074618;28;20924;-74
2021/06/13 04:03:52;;;;;;;13.10;6.50;;;17.60;74.60;;;;;;5075152;28;20471;-75
2021/06/13 04:06:22;;;;;;;11.73;6.17;;;17.50;74.80;;;;;;5075955;28;20421;-76
2021/06/13 04:08:49;;;;;;;9.50;6.33;;;17.60;74.60;;;;;;5089086;28;20474;-74
2021/06/13 04:11:17;;;;;;;14.20;7.57;;;17.40;75.10;;;;;;5092731;28;20410;-74
2021/06/13 04:13:43;;;;;;;11.03;6.43;;;17.40;75.20;;;;;;5092835;28;20488;-75
2021/06/13 04:16:10;;;;;;;9.53;5.97;;;17.40;75.40;;;;;;5093246;28;20454;-75
2021/06/13 04:18:37;;;;;;;15.63;5.90;;;17.40;74.90;;;;;;5086513;28;20410;-76
2021/06/13 04:21:05;;;;;;;10.77;5.80;;;17.40;74.90;;;;;;5083169;28;20426;-76
2021/06/13 04:23:32;;;;;;;13.07;7.20;;;17.40;75.40;;;;;;5078088;28;20430;-75
2021/06/13 04:25:58;;;;;;;12.83;6.83;;;17.50;75.10;;;;;;5073093;28;20995;-76
2021/06/13 04:28:24;;;;;;;8.90;5.90;;;17.50;75.10;;;;;;5075810;28;20836;-75
2021/06/13 04:31:10;;;;;;;14.70;7.03;;;17.30;75.50;;;;;;5070207;28;20494;-75
2021/06/13 04:33:37;;;;;;;9.80;6.50;;;17.10;76.20;;;;;;5070894;28;20469;-76
2021/06/13 04:36:03;;;;;;;9.50;6.40;;;17.10;76.70;;;;;;5072752;28;20466;-76
2021/06/13 04:38:29;;;;;;;14.50;6.87;;;17.00;76.80;;;;;;5072983;28;20483;-75
2021/06/13 04:40:55;;;;;;;11.07;6.20;;;17.10;76.80;;;;;;5073929;28;21600;-75
2021/06/13 04:43:21;;;;;;;10.00;6.50;;;17.10;76.80;;;;;;5074029;28;20446;-75
2021/06/13 04:45:47;;;;;;;10.40;6.33;;;17.10;76.40;;;;;;5074847;28;20545;-76
2021/06/13 04:48:12;;;;;;;13.20;7.00;;;17.20;76.40;;;;;;5071930;28;20513;-76
2021/06/13 04:50:41;;;;;;;10.47;5.90;;;17.10;75.80;;;;;;5071747;28;20550;-76
2021/06/13 04:53:46;;;;;;;10.80;6.40;;;17.20;75.90;;;;;;5073572;28;20665;-76
2021/06/13 04:56:27;;;;;;;11.77;6.80;;;17.30;75.80;;;;;;5075157;28;21342;-76
2021/06/13 04:58:53;;;;;;;11.60;7.00;;;17.10;76.50;;;;;;5077301;28;20471;-75
2021/06/13 05:01:18;;;;;;;9.77;6.43;;;17.00;77.10;;;;;;5078555;28;20776;-75
2021/06/13 05:03:44;;;;;;;10.20;6.10;;;17.10;76.80;;;;;;5077528;28;20615;-76
2021/06/13 05:06:11;;;;;;;15.30;6.60;;;17.10;76.80;;;;;;5078344;28;20188;-75
2021/06/13 05:08:40;;;;;;;10.73;5.83;;;17.00;76.40;;;;;;5083448;28;20434;-75
2021/06/13 05:11:05;;;;;;;10.93;5.83;;;17.10;76.70;;;;;;5082503;28;20461;-76
2021/06/13 05:13:31;;;;;;;9.23;6.27;;;17.20;76.10;;;;;;5077765;28;20808;-75
2021/06/13 05:15:57;;;;;;;9.03;6.20;;;17.30;75.90;;;;;;5070413;28;20230;-75
2021/06/13 05:18:22;;;;;;;14.70;7.30;;;17.20;76.20;;;;;;5074172;28;20184;-75
2021/06/13 05:20:53;;;;;;;12.30;6.60;;;17.20;75.80;;;;;;5074689;28;20177;-76
2021/06/13 05:23:20;;;;;;;11.47;5.97;;;17.10;75.70;;;;;;5075138;28;20188;-77
2021/06/13 05:25:46;;;;;;;18.10;5.80;;;17.20;76.40;;;;;;5073947;28;20452;-77
2021/06/13 05:28:12;;;;;;;10.50;6.47;;;17.20;75.90;;;;;;5074031;28;20422;-77
2021/06/13 05:30:38;;;;;;;9.13;5.87;;;17.20;75.80;;;;;;5072967;28;20447;-75
2021/06/13 05:33:04;;;;;;;8.83;6.20;;;17.30;75.10;;;;;;5074153;28;20433;-75
2021/06/13 05:35:31;;;;;;;16.50;6.10;;;17.30;74.60;;;;;;5073487;28;20469;-75
2021/06/13 05:37:57;;;;;;;11.10;6.13;;;17.30;74.30;;;;;;5072472;28;20421;-75
2021/06/13 05:40:23;;;;;;;9.13;5.40;;;17.40;74.60;;;;;;5073148;28;20806;-75
2021/06/13 05:42:51;;;;;;;10.00;5.80;;;17.40;74.00;;;;;;5074359;28;20179;-75
2021/06/13 05:45:18;;;;;;;8.10;5.43;;;17.50;73.30;;;;;;5074481;28;20521;-75
2021/06/13 05:47:44;;;;;;;9.23;5.83;;;17.60;73.50;;;;;;5072897;28;20433;-75
2021/06/13 05:50:11;;;;;;;10.13;5.60;;;17.60;72.70;;;;;;5074208;28;20457;-76
2021/06/13 05:52:37;;;;;;;12.27;5.30;;;17.40;73.00;;;;;;5078962;28;20444;-75
2021/06/13 05:55:05;;;;;;;10.90;6.07;;;17.40;73.00;;;;;;5073273;28;20571;-75
2021/06/13 05:57:31;;;;;;;9.60;5.83;;;17.50;72.90;;;;;;5084815;28;20892;-75
2021/06/13 06:00:05;;;;;;;8.50;5.30;;;17.30;73.50;;;;;;5081142;28;20422;-75
2021/06/13 06:02:30;;;;;;;9.53;6.10;;;17.40;74.20;;;;;;5079559;28;20449;-75
2021/06/13 06:04:56;;;;;;;10.27;5.80;;;17.40;73.90;;;;;;5082066;28;20444;-75
2021/06/13 06:07:22;;;;;;;7.80;4.80;;;17.40;74.20;;;;;;5083196;28;20524;-75
2021/06/13 06:09:48;;;;;;;9.23;5.40;;;17.60;73.50;;;;;;5076047;28;20179;-76
2021/06/13 06:12:14;;;;;;;6.53;4.67;;;17.80;73.30;;;;;;5073152;28;20176;-75
2021/06/13 06:14:40;;;;;;;9.97;5.80;;;17.90;71.80;;;;;;5072648;28;20208;-76
2021/06/13 06:17:06;;;;;;;10.77;4.93;;;17.90;71.40;;;;;;5072668;28;20406;-74
2021/06/13 06:19:32;;;;;;;7.80;4.77;;;18.00;71.10;;;;;;5072603;28;20426;-75
2021/06/13 06:21:58;;;;;;;7.63;5.00;;;18.20;69.70;;;;;;5071350;28;20168;-76
2021/06/13 06:24:24;;;;;;;10.10;5.63;;;18.20;69.70;;;;;;5072566;28;20208;-75
2021/06/13 06:26:50;;;;;;;14.93;6.50;;;18.10;69.90;;;;;;5072413;28;20567;-75
2021/06/13 06:29:16;;;;;;;8.70;4.70;;;18.00;69.90;;;;;;5071597;28;20406;-75
2021/06/13 06:31:42;;;;;;;9.90;5.97;;;18.00;71.30;;;;;;5074977;28;20188;-74
2021/06/13 06:34:08;;;;;;;11.03;5.90;;;17.80;71.40;;;;;;5084207;28;20460;-74
2021/06/13 06:36:34;;;;;;;6.80;4.80;;;17.70;72.40;;;;;;5086008;28;20430;-75
2021/06/13 06:39:00;;;;;;;13.00;5.10;;;17.90;71.70;;;;;;5075434;28;20227;-74
2021/06/13 06:41:25;;;;;;;9.20;4.90;;;18.00;71.30;;;;;;5072181;28;20421;-75
2021/06/13 06:43:52;;;;;;;12.27;5.50;;;18.00;70.70;;;;;;5072583;28;20629;-75
2021/06/13 06:46:18;;;;;;;10.63;6.20;;;17.90;71.40;;;;;;5072180;28;20179;-75
2021/06/13 06:48:43;;;;;;;7.27;4.80;;;18.00;71.40;;;;;;5072842;28;20455;-75
2021/06/13 06:51:10;;;;;;;11.27;5.90;;;18.10;71.30;;;;;;5072451;28;20180;-75
2021/06/13 06:53:35;;;;;;;13.53;6.00;;;18.10;70.80;;;;;;5072544;28;20207;-74
2021/06/13 06:56:01;;;;;;;9.53;6.30;;;18.00;71.00;;;;;;5072750;28;20524;-75
2021/06/13 06:58:27;;;;;;;10.47;5.93;;;17.90;71.30;;;;;;5073286;28;20175;-76
2021/06/13 07:00:53;;;;;;;6.83;4.90;;;17.90;71.40;;;;;;5071962;28;20516;-75
2021/06/13 07:03:18;;;;;;;8.60;5.93;;;18.00;71.60;;;;;;5071167;28;20195;-75
2021/06/13 07:05:44;;;;;;;7.27;5.03;;;18.10;71.00;;;;;;5071076;28;20188;-73
2021/06/13 07:08:10;;;;;;;10.10;5.10;;;18.00;70.80;;;;;;5071668;28;20253;-72
2021/06/13 07:10:36;;;;;;;10.13;5.63;;;18.10;71.10;;;;;;5073368;28;20511;-72
2021/06/13 07:13:01;;;;;;;11.80;6.13;;;18.00;71.30;;;;;;5067359;28;20186;-72
2021/06/13 07:15:27;;;;;;;9.03;5.30;;;17.90;72.40;;;;;;5069392;28;20320;-72
2021/06/13 07:17:53;;;;;;;8.63;5.13;;;18.10;72.10;;;;;;5071193;28;20241;-71
2021/06/13 07:20:20;;;;;;;14.03;5.70;;;18.20;71.60;;;;;;5069976;28;20172;-71
2021/06/13 07:22:46;;;;;;;8.80;6.00;;;18.30;71.00;;;;;;5069993;28;20454;-72
2021/06/13 07:25:13;;;;;;;12.50;6.43;;;18.30;69.80;;;;;;5070842;28;20482;-71
2021/06/13 07:27:40;;;;;;;10.80;6.17;;;18.10;71.00;;;;;;5071196;28;20505;-72
2021/06/13 07:30:10;;;;;;;13.47;7.17;;;18.10;71.30;;;;;;5069805;28;20436;-72
2021/06/13 07:32:36;;;;;;;20.53;8.73;;;18.10;70.50;;;;;;5068603;28;20430;-72
2021/06/13 07:35:04;;;;;;;8.73;6.00;;;18.10;71.30;;;;;;5071182;28;20454;-72
2021/06/13 07:37:29;;;;;;;13.60;7.07;;;18.20;70.50;;;;;;5071778;28;20472;-71
2021/06/13 07:39:55;;;;;;;15.40;6.03;;;18.30;70.50;;;;;;5071901;28;20449;-71
2021/06/13 07:42:21;;;;;;;12.67;7.43;;;18.40;69.90;;;;;;5068962;28;20706;-72
2021/06/13 07:44:48;;;;;;;12.70;7.10;;;18.50;69.80;;;;;;5071237;28;20197;-72
2021/06/13 07:47:14;;;;;;;8.80;6.30;;;18.60;69.20;;;;;;5071407;28;20184;-72
2021/06/13 07:49:39;;;;;;;11.43;5.97;;;18.40;69.50;;;;;;5070804;28;20435;-72
2021/06/13 07:52:05;;;;;;;12.53;5.77;;;18.40;69.70;;;;;;5070264;28;20250;-73
2021/06/13 07:54:31;;;;;;;10.80;5.80;;;18.40;68.90;;;;;;5061331;28;20215;-72
2021/06/13 07:56:57;;;;;;;10.53;5.70;;;18.60;69.10;;;;;;5062952;28;20416;-72
2021/06/13 07:59:23;;;;;;;12.60;6.30;;;18.70;68.50;;;;;;5063163;28;20181;-73
2021/06/13 08:01:48;;;;;;;13.53;5.77;;;18.60;68.30;;;;;;5069985;28;20207;-72
2021/06/13 08:04:14;;;;;;;13.03;7.60;;;18.60;68.90;;;;;;5070462;28;20212;-72
2021/06/13 08:06:40;;;;;;;16.67;10.43;;;18.90;68.20;;;;;;5071068;28;20181;-73
2021/06/13 08:09:06;;;;;;;10.47;6.70;;;18.80;67.90;;;;;;5070526;28;20421;-73
2021/06/13 08:11:32;;;;;;;14.23;6.40;;;18.90;67.20;;;;;;5070790;28;20270;-72
2021/06/13 08:13:58;;;;;;;10.90;6.00;;;18.90;66.90;;;;;;5070017;28;20220;-72
2021/06/13 08:16:24;;;;;;;10.63;5.20;;;19.00;66.70;;;;;;5067817;28;20445;-73
2021/06/13 08:18:50;;;;;;;9.03;5.90;;;19.10;67.00;;;;;;5072093;28;20437;-73
2021/06/13 08:21:16;;;;;;;9.17;6.10;;;18.80;67.60;;;;;;5072322;28;21077;-72
2021/06/13 08:23:42;;;;;;;8.37;5.10;;;18.90;67.50;;;;;;5072138;28;20299;-73
2021/06/13 08:26:09;;;;;;;11.20;6.33;;;18.80;67.50;;;;;;5072330;28;20426;-73
2021/06/13 08:28:34;;;;;;;10.93;5.87;;;19.00;66.70;;;;;;5071103;28;20182;-72
2021/06/13 08:31:01;;;;;;;12.83;5.33;;;18.90;67.30;;;;;;5072036;28;20422;-73
2021/06/13 08:33:27;;;;;;;10.60;6.53;;;18.90;67.30;;;;;;5072219;28;20209;-72
2021/06/13 08:35:53;;;;;;;11.80;6.20;;;18.90;67.20;;;;;;5071892;28;20466;-72
2021/06/13 08:38:21;;;;;;;8.80;5.93;;;19.00;66.70;;;;;;5071157;28;20496;-72
2021/06/13 08:40:47;;;;;;;9.30;5.53;;;19.00;67.00;;;;;;5072232;28;20456;-72
2021/06/13 08:43:14;;;;;;;9.30;5.40;;;19.20;66.60;;;;;;5074301;28;20436;-71
2021/06/13 08:45:40;;;;;;;12.27;5.77;;;19.40;66.10;;;;;;5073712;28;20437;-72
2021/06/13 08:48:10;;;;;;;18.23;6.13;;;19.20;66.10;;;;;;5073625;28;20561;-74
2021/06/13 08:50:37;;;;;;;16.40;6.97;;;19.30;66.40;;;;;;5072460;28;20953;-70
2021/06/13 08:53:04;;;;;;;6.57;4.97;;;19.10;66.40;;;;;;5070446;28;20514;-72
2021/06/13 08:55:32;;;;;;;10.43;6.17;;;19.10;67.20;;;;;;5073602;28;20468;-72
2021/06/13 08:57:58;;;;;;;9.97;5.20;;;19.30;65.80;;;;;;5077494;28;20430;-72
2021/06/13 09:00:28;;;;;;;8.03;5.20;;;19.30;63.20;;;;;;5075556;28;20427;-72
2021/06/13 09:02:55;;;;;;;11.07;6.97;;;19.30;63.10;;;;;;5077941;28;20511;-73
2021/06/13 09:05:24;;;;;;;8.10;5.37;;;19.20;64.10;;;;;;5080945;28;20427;-72
2021/06/13 09:07:56;;;;;;;9.30;5.53;;;19.30;63.40;;;;;;5075021;28;21104;-72
2021/06/13 09:10:25;;;;;;;12.60;6.03;;;19.10;63.40;;;;;;5067637;28;20439;-73
2021/06/13 09:13:14;;;;;;;11.33;5.17;;;19.20;65.10;;;;;;5070763;28;20446;-74
2021/06/13 09:15:44;;;;;;;8.73;6.00;;;19.10;64.70;;;;;;5069784;28;20467;-72
2021/06/13 09:18:31;;;;;;;8.97;5.80;;;19.10;64.80;;;;;;5071578;28;20933;-72
2021/06/13 09:20:58;;;;;;;12.67;6.67;;;19.00;65.60;;;;;;5069363;28;20430;-72
2021/06/13 09:23:26;;;;;;;9.87;5.67;;;19.20;65.60;;;;;;5071415;28;20434;-72
2021/06/13 09:26:04;;;;;;;11.23;6.23;;;19.30;65.80;;;;;;5071862;28;20426;-72
2021/06/13 09:28:35;;;;;;;8.33;5.93;;;19.50;65.10;;;;;;5071470;28;20428;-73
2021/06/13 09:31:02;;;;;;;8.93;5.77;;;19.60;64.50;;;;;;5057041;28;20421;-73
2021/06/13 09:33:34;;;;;;;7.87;5.73;;;19.70;63.90;;;;;;5070968;28;20457;-72
2021/06/13 09:36:01;;;;;;;9.10;4.87;;;19.80;63.20;;;;;;5064704;28;20499;-73
2021/06/13 09:38:33;;;;;;;8.43;5.30;;;19.90;63.20;;;;;;5062730;28;20495;-73
2021/06/13 09:41:10;;;;;;;8.00;5.33;;;20.00;61.60;;;;;;5062606;28;20415;-73
2021/06/13 09:43:46;;;;;;;5.83;4.47;;;19.90;60.40;;;;;;5068607;28;20507;-72
2021/06/13 09:46:21;;;;;;;7.97;5.07;;;19.80;61.30;;;;;;5070125;28;20431;-73
2021/06/13 09:48:58;;;;;;;9.07;4.60;;;19.90;59.30;;;;;;5069256;28;20422;-73
2021/06/13 09:51:32;;;;;;;7.27;4.53;;;19.80;58.50;;;;;;5069903;28;20413;-73
2021/06/13 09:53:58;;;;;;;11.10;5.33;;;19.80;58.70;;;;;;5062561;28;20493;-73
2021/06/13 09:56:41;;;;;;;7.03;4.60;;;19.90;60.00;;;;;;5070449;28;20501;-73
2021/06/13 09:59:13;;;;;;;6.20;4.70;;;20.00;59.10;;;;;;5064236;28;20457;-73
2021/06/13 10:01:39;;;;;;;7.60;5.00;;;20.10;58.10;;;;;;5064372;28;20913;-74
2021/06/13 10:04:27;;;;;;;5.83;4.20;;;20.30;58.00;;;;;;5070685;28;20523;-75
2021/06/13 10:07:17;;;;;;;8.03;4.70;;;20.30;58.40;;;;;;5069686;28;20172;-74
2021/06/13 10:09:45;;;;;;;7.23;5.10;;;20.30;57.70;;;;;;5070170;28;20927;-73
2021/06/13 10:12:15;;;;;;;10.90;4.97;;;20.30;56.90;;;;;;5069934;28;20414;-74
2021/06/13 10:14:41;;;;;;;7.13;4.80;;;20.30;58.10;;;;;;5066885;28;20520;-73
2021/06/13 10:17:09;;;;;;;10.37;5.40;;;20.50;57.80;;;;;;5064914;28;20434;-73
2021/06/13 10:19:43;;;;;;;13.17;5.00;;;20.70;57.80;;;;;;5063141;28;20459;-73
2021/06/13 10:22:11;;;;;;;6.83;4.57;;;20.90;57.30;;;;;;5069716;28;20437;-74
2021/06/13 10:24:40;;;;;;;7.43;4.83;;;21.10;56.10;;;;;;5067900;28;20517;-74
2021/06/13 10:27:07;;;;;;;7.27;4.33;;;21.10;54.40;;;;;;5066963;28;20459;-78
2021/06/13 10:29:36;;;;;;;6.10;4.67;;;20.80;55.40;;;;;;5068634;28;20431;-77
2021/06/13 10:32:04;;;;;;;6.67;4.60;;;21.20;55.80;;;;;;5068860;28;20431;-77
2021/06/13 10:34:31;;;;;;;7.00;4.43;;;21.30;54.60;;;;;;5066566;28;20484;-78
2021/06/13 10:36:59;;;;;;;8.27;5.07;;;21.70;54.10;;;;;;5071018;28;20475;-78
2021/06/13 10:39:27;;;;;;;9.83;4.70;;;21.50;54.00;;;;;;5071616;28;20506;-75
2021/06/13 10:41:54;;;;;;;8.33;4.50;;;21.70;54.90;;;;;;5067196;28;20440;-76
2021/06/13 10:44:22;;;;;;;9.27;5.33;;;21.90;54.40;;;;;;5071972;28;20451;-78
2021/06/13 10:46:51;;;;;;;8.93;5.33;;;21.70;53.20;;;;;;5075596;28;20425;-75
2021/06/13 10:49:48;;;;;;;6.53;4.07;;;21.50;52.90;;;;;;5076994;28;20423;-77
2021/06/13 10:52:27;;;;;;;9.57;4.60;;;21.60;53.20;;;;;;5065294;28;20443;-76
2021/06/13 10:54:53;;;;;;;8.10;4.77;;;21.50;54.00;;;;;;5071911;28;20474;-76
2021/06/13 10:57:19;;;;;;;6.10;4.40;;;21.50;52.90;;;;;;5071453;28;20416;-77
2021/06/13 10:59:50;;;;;;;7.13;4.47;;;21.30;54.10;;;;;;5071485;28;20464;-75
2021/06/13 11:02:35;;;;;;;9.20;3.63;;;21.40;53.30;;;;;;5066933;28;20564;-76
2021/06/13 11:05:05;;;;;;;5.73;4.10;;;22.00;51.70;;;;;;5064061;28;20890;-76
2021/06/13 11:07:34;;;;;;;6.30;4.13;;;22.40;51.00;;;;;;5070028;28;20437;-77
2021/06/13 11:10:21;;;;;;;7.80;4.27;;;21.80;52.20;;;;;;5059946;28;20914;-76
2021/06/13 11:12:56;;;;;;;7.53;4.20;;;22.10;52.20;;;;;;5069860;28;20790;-75
2021/06/13 11:15:40;;;;;;;10.37;4.60;;;21.60;52.90;;;;;;5070466;28;20468;-77
2021/06/13 11:18:15;;;;;;;6.50;3.80;;;22.00;51.60;;;;;;5070748;28;20962;-76
2021/06/13 11:21:03;;;;;;;6.63;4.70;;;22.10;52.10;;;;;;5069994;28;20433;-75
2021/06/13 11:23:29;;;;;;;8.40;4.47;;;22.20;52.40;;;;;;5071040;28;20472;-75
2021/06/13 11:25:57;;;;;;;9.90;4.87;;;21.90;53.30;;;;;;5062667;28;20556;-76
2021/06/13 11:28:49;;;;;;;8.47;4.50;;;22.40;52.40;;;;;;5071065;28;20191;-76
2021/06/13 11:31:15;;;;;;;8.00;4.40;;;22.90;49.90;;;;;;5063126;28;20510;-77
2021/06/13 11:33:48;;;;;;;6.93;4.00;;;23.30;47.40;;;;;;5070576;28;20576;-76
2021/06/13 11:36:17;;;;;;;5.27;4.30;;;22.80;45.90;;;;;;5071074;28;20209;-75
2021/06/13 11:38:51;;;;;;;7.17;3.87;;;22.80;47.50;;;;;;5058503;28;20455;-76
2021/06/13 11:41:30;;;;;;;8.13;3.77;;;22.50;46.70;;;;;;5063680;28;20425;-75
2021/06/13 11:43:57;;;;;;;5.40;3.77;;;22.70;46.20;;;;;;5066041;28;20958;-75
2021/06/13 11:46:53;;;;;;;5.87;3.90;;;23.00;45.30;;;;;;5069466;28;20518;-77
2021/06/13 11:49:43;;;;;;;6.40;4.20;;;23.20;46.20;;;;;;5065026;28;20541;-75
2021/06/13 11:52:08;;;;;;;7.63;4.20;;;22.90;46.10;;;;;;5068108;28;20470;-76
2021/06/13 11:54:45;;;;;;;5.57;3.90;;;22.90;47.50;;;;;;5072158;28;20507;-77
2021/06/13 11:57:31;;;;;;;6.83;4.03;;;23.20;47.90;;;;;;5074689;28;20177;-77
2021/06/13 12:00:11;;;;;;;6.30;4.00;;;23.20;46.70;;;;;;5072133;28;20444;-75
2021/06/13 12:02:37;;;;;;;8.40;4.20;;;23.10;47.90;;;;;;5072382;28;20454;-77
2021/06/13 12:05:04;;;;;;;5.37;4.13;;;23.00;48.50;;;;;;5073032;28;20928;-76
2021/06/13 12:07:37;;;;;;;6.10;4.03;;;23.20;44.90;;;;;;5073388;28;20470;-75
2021/06/13 12:10:20;;;;;;;7.27;3.67;;;23.00;44.90;;;;;;5064845;28;20435;-75
2021/06/13 12:12:45;;;;;;;7.20;3.20;;;23.60;44.90;;;;;;5073490;28;20431;-75
2021/06/13 12:15:12;;;;;;;4.57;3.13;;;23.30;41.40;;;;;;5074519;28;20471;-78
2021/06/13 12:17:38;;;;;;;6.63;4.00;;;23.50;44.90;;;;;;5075202;28;20185;-75
2021/06/13 12:20:05;;;;;;;5.70;3.70;;;23.80;44.60;;;;;;5072748;28;20427;-77
2021/06/13 12:22:54;;;;;;;7.00;3.70;;;23.20;43.20;;;;;;5067050;28;20455;-77
2021/06/13 12:28:07;;;;;;;7.40;3.70;;;22.80;47.50;;;;;;5068116;28;20490;-76
2021/06/13 12:30:34;;;;;;;11.20;4.10;;;23.30;46.50;;;;;;5069556;28;20908;-75
2021/06/13 12:33:07;;;;;;;4.63;3.70;;;23.70;45.30;;;;;;5073933;28;20237;-75
2021/06/13 12:35:48;;;;;;;6.77;3.53;;;24.10;44.60;;;;;;5070829;28;20476;-76
2021/06/13 12:38:25;;;;;;;5.03;3.70;;;24.10;43.40;;;;;;5074289;28;21032;-77
2021/06/13 12:40:57;;;;;;;6.63;3.70;;;24.00;42.80;;;;;;5067233;28;20503;-77
2021/06/13 12:43:43;;;;;;;8.80;3.37;;;24.10;42.20;;;;;;5077752;28;20539;-76
2021/06/13 12:46:11;;;;;;;7.03;3.20;;;24.60;39.60;;;;;;5069415;28;20418;-75
2021/06/13 12:48:38;;;;;;;4.23;3.33;;;24.80;39.10;;;;;;5075356;28;20434;-75
2021/06/13 12:51:04;;;;;;;3.40;3.27;;;25.10;39.20;;;;;;5083523;28;20431;-76
2021/06/13 12:53:32;;;;;;;4.37;3.27;;;24.90;39.20;;;;;;5082904;28;20446;-77
2021/06/13 12:55:58;;;;;;;4.33;3.23;;;24.80;39.80;;;;;;5072408;28;20502;-76